sensor_id;sensor_type;location;lat;lon;timestamp;temperature;humidity
4293;DHT22;2160;51.172;6.808;2022-11-15T05:02:56;15.60;99.90
4293;DHT22;2160;51.172;6.808;2022-11-15T05:05:59;15.60;99.90
4293;DHT22;2160;51.172;6.808;2022-11-15T05:08:45;15.50;99.90
4293;DHT22;2160;51.172;6.808;2022-11-15T05:11:30;15.40;99.90
4293;DHT22;2160;51.172;6.808;2022-11-15T05:14:16;15.50;99.90
4293;DHT22;2160;51.172;6.808;2022-11-15T05:17:01;15.50;99.90
4293;DHT22;2160;51.172;6.808;2022-11-15T05:19:48;15.60;99.90
4293;DHT22;2160;51.172;6.808;2022-11-15T05:22:36;15.50;99.90
4293;DHT22;2160;51.172;6.808;2022-11-15T05:25:21;15.40;99.90
4293;DHT22;2160;51.172;6.808;2022-11-15T05:28:07;15.50;99.90
4293;DHT22;2160;51.172;6.808;2022-11-15T05:30:52;15.60;99.90
4293;DHT22;2160;51.172;6.808;2022-11-15T05:33:38;15.50;99.90
4293;DHT22;2160;51.172;6.808;2022-11-15T05:36:31;15.50;99.90
4293;DHT22;2160;51.172;6.808;2022-11-15T05:39:19;15.40;99.90
4293;DHT22;2160;51.172;6.808;2022-11-15T05:42:07;15.50;99.90
4293;DHT22;2160;51.172;6.808;2022-11-15T05:44:54;15.50;99.90
4293;DHT22;2160;51.172;6.808;2022-11-15T05:47:40;15.40;99.90
4293;DHT22;2160;51.172;6.808;2022-11-15T05:50:26;15.30;99.90
4293;DHT22;2160;51.172;6.808;2022-11-15T05:53:15;15.40;99.90
4293;DHT22;2160;51.172;6.808;2022-11-15T05:56:02;15.30;99.90
4293;DHT22;2160;51.172;6.808;2022-11-15T05:58:48;15.20;99.90
4293;DHT22;2160;51.172;6.808;2022-11-15T06:01:34;15.00;99.90
4293;DHT22;2160;51.172;6.808;2022-11-15T06:04:19;15.10;99.90
4293;DHT22;2160;51.172;6.808;2022-11-15T06:07:05;15.20;99.90
4293;DHT22;2160;51.172;6.808;2022-11-15T06:09:52;15.10;99.90
4293;DHT22;2160;51.172;6.808;2022-11-15T06:12:37;15.10;99.90
4293;DHT22;2160;51.172;6.808;2022-11-15T06:15:23;15.30;99.90
4293;DHT22;2160;51.172;6.808;2022-11-15T06:18:08;15.20;99.90
4293;DHT22;2160;51.172;6.808;2022-11-15T06:20:58;15.20;99.90
4293;DHT22;2160;51.172;6.808;2022-11-15T06:23:43;15.40;99.90
4293;DHT22;2160;51.172;6.808;2022-11-15T06:26:30;15.40;99.90
4293;DHT22;2160;51.172;6.808;2022-11-15T06:29:16;15.50;99.90
4293;DHT22;2160;51.172;6.808;2022-11-15T06:32:01;15.60;99.90
4293;DHT22;2160;51.172;6.808;2022-11-15T06:34:47;15.40;99.90
4293;DHT22;2160;51.172;6.808;2022-11-15T06:37:33;15.30;99.90
4293;DHT22;2160;51.172;6.808;2022-11-15T06:40:19;15.20;99.90
4293;DHT22;2160;51.172;6.808;2022-11-15T06:43:06;15.40;99.90
4293;DHT22;2160;51.172;6.808;2022-11-15T06:45:51;15.40;99.90
4293;DHT22;2160;51.172;6.808;2022-11-15T06:48:37;15.30;99.90
4293;DHT22;2160;51.172;6.808;2022-11-15T06:51:23;15.20;99.90
4293;DHT22;2160;51.172;6.808;2022-11-15T06:54:08;15.10;99.90
4293;DHT22;2160;51.172;6.808;2022-11-15T06:56:53;15.20;99.90
4293;DHT22;2160;51.172;6.808;2022-11-15T06:59:40;15.10;99.90
4293;DHT22;2160;51.172;6.808;2022-11-15T07:02:26;15.20;99.90
4293;DHT22;2160;51.172;6.808;2022-11-15T07:05:12;15.20;99.90
4293;DHT22;2160;51.172;6.808;2022-11-15T07:07:58;15.20;99.90
4293;DHT22;2160;51.172;6.808;2022-11-15T07:10:43;15.10;99.90
4293;DHT22;2160;51.172;6.808;2022-11-15T07:13:30;15.10;99.90
4293;DHT22;2160;51.172;6.808;2022-11-15T07:16:18;15.10;99.90
4293;DHT22;2160;51.172;6.808;2022-11-15T07:19:04;15.00;99.90
4293;DHT22;2160;51.172;6.808;2022-11-15T07:21:49;14.80;99.90
4293;DHT22;2160;51.172;6.808;2022-11-15T07:24:35;14.90;99.90
4293;DHT22;2160;51.172;6.808;2022-11-15T07:27:20;15.10;99.90
4293;DHT22;2160;51.172;6.808;2022-11-15T07:30:07;15.20;99.90
4293;DHT22;2160;51.172;6.808;2022-11-15T07:32:54;15.00;99.90
4293;DHT22;2160;51.172;6.808;2022-11-15T07:35:39;15.00;99.90
4293;DHT22;2160;51.172;6.808;2022-11-15T07:38:26;15.10;99.90
4293;DHT22;2160;51.172;6.808;2022-11-15T07:41:12;15.20;99.90
4293;DHT22;2160;51.172;6.808;2022-11-15T07:43:57;14.90;99.90
4293;DHT22;2160;51.172;6.808;2022-11-15T07:46:43;14.90;99.90
4293;DHT22;2160;51.172;6.808;2022-11-15T07:49:30;15.00;99.90
4293;DHT22;2160;51.172;6.808;2022-11-15T07:52:15;15.00;99.90
4293;DHT22;2160;51.172;6.808;2022-11-15T07:55:01;15.00;99.90
4293;DHT22;2160;51.172;6.808;2022-11-15T07:57:46;15.10;99.90
4293;DHT22;2160;51.172;6.808;2022-11-15T08:00:32;15.20;99.90
4293;DHT22;2160;51.172;6.808;2022-11-15T08:03:18;15.10;99.90
4293;DHT22;2160;51.172;6.808;2022-11-15T08:06:05;15.10;99.90
4293;DHT22;2160;51.172;6.808;2022-11-15T08:08:51;15.10;99.90
4293;DHT22;2160;51.172;6.808;2022-11-15T08:11:36;15.10;99.90
4293;DHT22;2160;51.172;6.808;2022-11-15T08:14:22;14.90;99.90
4293;DHT22;2160;51.172;6.808;2022-11-15T08:17:07;14.90;99.90
4293;DHT22;2160;51.172;6.808;2022-11-15T08:19:53;14.90;99.90
4293;DHT22;2160;51.172;6.808;2022-11-15T08:22:40;15.10;99.90
4293;DHT22;2160;51.172;6.808;2022-11-15T08:25:26;15.10;99.90
4293;DHT22;2160;51.172;6.808;2022-11-15T08:28:12;15.00;99.90
4293;DHT22;2160;51.172;6.808;2022-11-15T08:30:58;15.10;99.90
4293;DHT22;2160;51.172;6.808;2022-11-15T08:33:44;14.90;99.90
4293;DHT22;2160;51.172;6.808;2022-11-15T08:36:30;15.00;99.90
4293;DHT22;2160;51.172;6.808;2022-11-15T08:39:16;15.10;99.90
4293;DHT22;2160;51.172;6.808;2022-11-15T08:42:02;15.00;99.90
4293;DHT22;2160;51.172;6.808;2022-11-15T08:44:48;15.10;99.90
4293;DHT22;2160;51.172;6.808;2022-11-15T08:47:34;15.00;99.90
4293;DHT22;2160;51.172;6.808;2022-11-15T08:50:20;15.00;99.90
4293;DHT22;2160;51.172;6.808;2022-11-15T08:53:06;15.00;99.90
4293;DHT22;2160;51.172;6.808;2022-11-15T08:55:53;15.10;99.90
4293;DHT22;2160;51.172;6.808;2022-11-15T08:58:39;14.90;99.90
4293;DHT22;2160;51.172;6.808;2022-11-15T09:01:26;15.00;99.90
4293;DHT22;2160;51.172;6.808;2022-11-15T09:04:12;15.10;99.90
4293;DHT22;2160;51.172;6.808;2022-11-15T09:06:58;15.10;99.90
4293;DHT22;2160;51.172;6.808;2022-11-15T09:09:43;15.20;99.90
4293;DHT22;2160;51.172;6.808;2022-11-15T09:12:30;15.10;99.90
4293;DHT22;2160;51.172;6.808;2022-11-15T09:15:16;15.20;99.90
4293;DHT22;2160;51.172;6.808;2022-11-15T09:18:01;15.10;99.90
4293;DHT22;2160;51.172;6.808;2022-11-15T09:20:47;15.00;99.90
4293;DHT22;2160;51.172;6.808;2022-11-15T09:23:33;15.10;99.90
4293;DHT22;2160;51.172;6.808;2022-11-15T09:26:18;15.10;99.90
4293;DHT22;2160;51.172;6.808;2022-11-15T09:29:05;15.00;99.90
4293;DHT22;2160;51.172;6.808;2022-11-15T09:31:51;15.10;99.90
4293;DHT22;2160;51.172;6.808;2022-11-15T09:34:37;15.20;99.90
4293;DHT22;2160;51.172;6.808;2022-11-15T09:37:23;15.30;99.90
4293;DHT22;2160;51.172;6.808;2022-11-15T09:40:11;15.40;99.90
4293;DHT22;2160;51.172;6.808;2022-11-15T09:43:08;15.50;99.90
4293;DHT22;2160;51.172;6.808;2022-11-15T09:46:07;15.40;99.90
4293;DHT22;2160;51.172;6.808;2022-11-15T09:48:56;15.50;99.90
4293;DHT22;2160;51.172;6.808;2022-11-15T09:51:47;15.50;99.90
4293;DHT22;2160;51.172;6.808;2022-11-15T09:54:25;15.70;99.90
4293;DHT22;2160;51.172;6.808;2022-11-15T09:56:53;15.70;99.90
4293;DHT22;2160;51.172;6.808;2022-11-15T09:59:43;15.70;99.90
4293;DHT22;2160;51.172;6.808;2022-11-15T10:02:26;15.80;99.90
4293;DHT22;2160;51.172;6.808;2022-11-15T10:04:59;15.90;99.90
4293;DHT22;2160;51.172;6.808;2022-11-15T10:07:31;15.80;99.90
4293;DHT22;2160;51.172;6.808;2022-11-15T10:10:04;15.80;99.90
4293;DHT22;2160;51.172;6.808;2022-11-15T10:12:35;15.90;99.90
4293;DHT22;2160;51.172;6.808;2022-11-15T10:15:04;16.00;99.90
4293;DHT22;2160;51.172;6.808;2022-11-15T10:18:14;15.90;99.90
4293;DHT22;2160;51.172;6.808;2022-11-15T10:20:47;16.10;99.90
4293;DHT22;2160;51.172;6.808;2022-11-15T10:23:17;16.10;99.90
4293;DHT22;2160;51.172;6.808;2022-11-15T10:25:45;16.10;99.90
4293;DHT22;2160;51.172;6.808;2022-11-15T10:28:15;16.20;99.90
4293;DHT22;2160;51.172;6.808;2022-11-15T10:30:45;16.20;99.90
4293;DHT22;2160;51.172;6.808;2022-11-15T10:33:24;16.30;99.90
4293;DHT22;2160;51.172;6.808;2022-11-15T10:36:16;16.40;99.90
4293;DHT22;2160;51.172;6.808;2022-11-15T10:38:57;16.30;99.90
4293;DHT22;2160;51.172;6.808;2022-11-15T10:41:45;16.20;99.90
4293;DHT22;2160;51.172;6.808;2022-11-15T10:44:21;16.30;99.90
4293;DHT22;2160;51.172;6.808;2022-11-15T10:47:04;16.10;99.90
4293;DHT22;2160;51.172;6.808;2022-11-15T10:49:34;16.10;99.90
4293;DHT22;2160;51.172;6.808;2022-11-15T10:52:03;16.20;99.90
4293;DHT22;2160;51.172;6.808;2022-11-15T10:54:39;16.40;99.90
4293;DHT22;2160;51.172;6.808;2022-11-15T10:57:12;16.40;99.90
4293;DHT22;2160;51.172;6.808;2022-11-15T10:59:45;16.60;99.90
4293;DHT22;2160;51.172;6.808;2022-11-15T11:02:29;16.70;99.90
4293;DHT22;2160;51.172;6.808;2022-11-15T11:04:59;16.80;99.90
4293;DHT22;2160;51.172;6.808;2022-11-15T11:07:28;17.10;99.90
4293;DHT22;2160;51.172;6.808;2022-11-15T11:10:00;17.00;99.90
4293;DHT22;2160;51.172;6.808;2022-11-15T11:12:29;16.80;99.90
4293;DHT22;2160;51.172;6.808;2022-11-15T11:14:58;16.80;99.90
4293;DHT22;2160;51.172;6.808;2022-11-15T11:17:32;16.80;99.90
4293;DHT22;2160;51.172;6.808;2022-11-15T11:20:09;17.00;99.90
4293;DHT22;2160;51.172;6.808;2022-11-15T11:22:46;17.00;99.90
4293;DHT22;2160;51.172;6.808;2022-11-15T11:25:25;17.10;99.90
4293;DHT22;2160;51.172;6.808;2022-11-15T11:28:05;17.00;99.90
4293;DHT22;2160;51.172;6.808;2022-11-15T11:30:42;16.70;99.90
4293;DHT22;2160;51.172;6.808;2022-11-15T11:33:16;16.70;99.90
4293;DHT22;2160;51.172;6.808;2022-11-15T11:36:03;16.80;99.90
4293;DHT22;2160;51.172;6.808;2022-11-15T11:38:46;16.70;99.90
4293;DHT22;2160;51.172;6.808;2022-11-15T11:41:22;16.80;99.90
4293;DHT22;2160;51.172;6.808;2022-11-15T11:43:58;16.70;99.90
4293;DHT22;2160;51.172;6.808;2022-11-15T11:46:42;16.60;99.90
4293;DHT22;2160;51.172;6.808;2022-11-15T11:49:16;16.50;99.90
4293;DHT22;2160;51.172;6.808;2022-11-15T11:51:51;16.70;99.90
4293;DHT22;2160;51.172;6.808;2022-11-15T11:54:23;16.80;99.90
4293;DHT22;2160;51.172;6.808;2022-11-15T11:56:53;16.90;99.90
4293;DHT22;2160;51.172;6.808;2022-11-15T11:59:31;16.80;99.90
4293;DHT22;2160;51.172;6.808;2022-11-15T12:02:02;16.90;99.90
4293;DHT22;2160;51.172;6.808;2022-11-15T12:04:37;16.80;99.90
4293;DHT22;2160;51.172;6.808;2022-11-15T12:07:11;16.90;99.90
4293;DHT22;2160;51.172;6.808;2022-11-15T12:09:44;17.00;99.90
4293;DHT22;2160;51.172;6.808;2022-11-15T12:12:17;17.10;99.90
4293;DHT22;2160;51.172;6.808;2022-11-15T12:14:48;16.90;99.90
4293;DHT22;2160;51.172;6.808;2022-11-15T12:17:17;16.90;99.90
4293;DHT22;2160;51.172;6.808;2022-11-15T12:19:46;17.00;99.90
4293;DHT22;2160;51.172;6.808;2022-11-15T12:22:21;16.90;99.90
4293;DHT22;2160;51.172;6.808;2022-11-15T12:24:54;16.80;99.90
4293;DHT22;2160;51.172;6.808;2022-11-15T12:27:31;16.90;99.90
4293;DHT22;2160;51.172;6.808;2022-11-15T12:30:03;17.00;99.90
4293;DHT22;2160;51.172;6.808;2022-11-15T12:32:33;17.10;99.90
4293;DHT22;2160;51.172;6.808;2022-11-15T12:35:02;17.00;99.90
4293;DHT22;2160;51.172;6.808;2022-11-15T12:37:49;16.90;99.90
4293;DHT22;2160;51.172;6.808;2022-11-15T12:40:25;16.80;99.90
4293;DHT22;2160;51.172;6.808;2022-11-15T12:45:45;17.00;99.90
4293;DHT22;2160;51.172;6.808;2022-11-15T12:57:46;17.40;99.90
4293;DHT22;2160;51.172;6.808;2022-11-15T13:00:43;17.30;99.90
4293;DHT22;2160;51.172;6.808;2022-11-15T13:03:30;17.30;99.90
4293;DHT22;2160;51.172;6.808;2022-11-15T13:06:06;17.20;99.90
4293;DHT22;2160;51.172;6.808;2022-11-15T13:08:51;17.10;99.90
4293;DHT22;2160;51.172;6.808;2022-11-15T13:11:52;17.30;99.90
4293;DHT22;2160;51.172;6.808;2022-11-15T13:14:48;17.20;99.90
4293;DHT22;2160;51.172;6.808;2022-11-15T13:17:33;17.20;99.90
4293;DHT22;2160;51.172;6.808;2022-11-15T13:20:23;17.20;99.90
4293;DHT22;2160;51.172;6.808;2022-11-15T13:22:52;17.20;99.90
4293;DHT22;2160;51.172;6.808;2022-11-15T13:28:33;17.30;99.90
4293;DHT22;2160;51.172;6.808;2022-11-15T13:31:13;17.10;99.90
4293;DHT22;2160;51.172;6.808;2022-11-15T13:33:43;17.20;99.90
4293;DHT22;2160;51.172;6.808;2022-11-15T13:36:13;17.40;99.90
4293;DHT22;2160;51.172;6.808;2022-11-15T13:38:42;17.60;99.90
4293;DHT22;2160;51.172;6.808;2022-11-15T13:41:18;17.70;99.90
4293;DHT22;2160;51.172;6.808;2022-11-15T13:43:46;17.70;99.90
4293;DHT22;2160;51.172;6.808;2022-11-15T13:46:17;17.70;99.90
4293;DHT22;2160;51.172;6.808;2022-11-15T13:48:45;17.80;99.90
4293;DHT22;2160;51.172;6.808;2022-11-15T13:51:19;17.80;99.90
4293;DHT22;2160;51.172;6.808;2022-11-15T13:53:50;17.80;99.90
4293;DHT22;2160;51.172;6.808;2022-11-15T13:56:18;17.60;99.90
4293;DHT22;2160;51.172;6.808;2022-11-15T13:58:46;17.40;99.90
4293;DHT22;2160;51.172;6.808;2022-11-15T14:01:17;17.60;99.90
4293;DHT22;2160;51.172;6.808;2022-11-15T14:03:54;17.70;99.90
4293;DHT22;2160;51.172;6.808;2022-11-15T14:06:23;17.70;99.90
4293;DHT22;2160;51.172;6.808;2022-11-15T14:12:01;17.70;99.90
4293;DHT22;2160;51.172;6.808;2022-11-15T14:14:29;17.60;99.90
4293;DHT22;2160;51.172;6.808;2022-11-15T14:16:59;17.70;99.90
4293;DHT22;2160;51.172;6.808;2022-11-15T14:19:40;17.70;99.90
4293;DHT22;2160;51.172;6.808;2022-11-15T14:22:17;17.60;99.90
4293;DHT22;2160;51.172;6.808;2022-11-15T14:25:02;17.70;99.90
4293;DHT22;2160;51.172;6.808;2022-11-15T14:27:30;17.60;99.90
4293;DHT22;2160;51.172;6.808;2022-11-15T14:29:57;17.40;99.90
4293;DHT22;2160;51.172;6.808;2022-11-15T14:32:27;17.50;99.90
4293;DHT22;2160;51.172;6.808;2022-11-15T14:34:55;17.90;99.90
4293;DHT22;2160;51.172;6.808;2022-11-15T14:37:25;17.80;99.90
4293;DHT22;2160;51.172;6.808;2022-11-15T14:39:52;17.70;99.90
4293;DHT22;2160;51.172;6.808;2022-11-15T14:42:21;17.60;99.90
4293;DHT22;2160;51.172;6.808;2022-11-15T14:44:49;17.60;99.90
4293;DHT22;2160;51.172;6.808;2022-11-15T14:47:16;17.60;99.90
4293;DHT22;2160;51.172;6.808;2022-11-15T14:49:44;17.50;99.90
4293;DHT22;2160;51.172;6.808;2022-11-15T14:52:27;17.50;99.90
4293;DHT22;2160;51.172;6.808;2022-11-15T14:54:55;17.50;99.90
4293;DHT22;2160;51.172;6.808;2022-11-15T14:57:23;17.60;99.90
4293;DHT22;2160;51.172;6.808;2022-11-15T14:59:50;17.70;99.90
4293;DHT22;2160;51.172;6.808;2022-11-15T15:02:19;17.70;99.90
4293;DHT22;2160;51.172;6.808;2022-11-15T15:04:48;17.70;99.90
4293;DHT22;2160;51.172;6.808;2022-11-15T15:07:15;17.70;99.90
4293;DHT22;2160;51.172;6.808;2022-11-15T15:09:42;17.60;99.90
4293;DHT22;2160;51.172;6.808;2022-11-15T15:12:15;17.40;99.90
4293;DHT22;2160;51.172;6.808;2022-11-15T15:14:43;17.30;99.90
4293;DHT22;2160;51.172;6.808;2022-11-15T15:17:10;17.40;99.90
4293;DHT22;2160;51.172;6.808;2022-11-15T15:19:37;17.40;99.90
4293;DHT22;2160;51.172;6.808;2022-11-15T15:22:06;17.30;99.90
4293;DHT22;2160;51.172;6.808;2022-11-15T15:24:35;17.30;99.90
4293;DHT22;2160;51.172;6.808;2022-11-15T15:27:02;17.20;99.90
4293;DHT22;2160;51.172;6.808;2022-11-15T15:29:29;17.40;99.90
4293;DHT22;2160;51.172;6.808;2022-11-15T15:31:56;17.30;99.90
4293;DHT22;2160;51.172;6.808;2022-11-15T15:34:23;17.40;99.90
4293;DHT22;2160;51.172;6.808;2022-11-15T15:37:08;17.30;99.90
4293;DHT22;2160;51.172;6.808;2022-11-15T15:39:35;17.20;99.90
4293;DHT22;2160;51.172;6.808;2022-11-15T15:42:02;17.10;99.90
4293;DHT22;2160;51.172;6.808;2022-11-15T15:44:29;17.10;99.90
4293;DHT22;2160;51.172;6.808;2022-11-15T15:46:56;17.20;99.90
4293;DHT22;2160;51.172;6.808;2022-11-15T15:49:23;17.10;99.90
4293;DHT22;2160;51.172;6.808;2022-11-15T15:51:50;17.30;99.90
4293;DHT22;2160;51.172;6.808;2022-11-15T15:54:19;17.30;99.90
4293;DHT22;2160;51.172;6.808;2022-11-15T15:56:45;17.40;99.90
4293;DHT22;2160;51.172;6.808;2022-11-15T15:59:12;17.30;99.90
4293;DHT22;2160;51.172;6.808;2022-11-15T16:01:40;17.30;99.90
4293;DHT22;2160;51.172;6.808;2022-11-15T16:04:07;17.30;99.90
4293;DHT22;2160;51.172;6.808;2022-11-15T16:06:36;17.40;99.90
4293;DHT22;2160;51.172;6.808;2022-11-15T16:09:05;17.30;99.90
4293;DHT22;2160;51.172;6.808;2022-11-15T16:11:33;17.10;99.90
4293;DHT22;2160;51.172;6.808;2022-11-15T16:14:00;17.10;99.90
4293;DHT22;2160;51.172;6.808;2022-11-15T16:16:27;17.10;99.90
4293;DHT22;2160;51.172;6.808;2022-11-15T16:18:54;17.20;99.90
4293;DHT22;2160;51.172;6.808;2022-11-15T16:21:22;17.30;99.90
4293;DHT22;2160;51.172;6.808;2022-11-15T16:23:49;17.10;99.90
4293;DHT22;2160;51.172;6.808;2022-11-15T16:26:20;17.20;99.90
4293;DHT22;2160;51.172;6.808;2022-11-15T16:28:49;17.20;99.90
4293;DHT22;2160;51.172;6.808;2022-11-15T16:31:16;17.20;99.90
4293;DHT22;2160;51.172;6.808;2022-11-15T16:33:45;17.10;99.90
4293;DHT22;2160;51.172;6.808;2022-11-15T16:36:19;17.10;99.90
4293;DHT22;2160;51.172;6.808;2022-11-15T16:38:46;17.10;99.90
4293;DHT22;2160;51.172;6.808;2022-11-15T16:41:13;17.10;99.90
4293;DHT22;2160;51.172;6.808;2022-11-15T16:43:42;17.00;99.90
4293;DHT22;2160;51.172;6.808;2022-11-15T16:46:15;17.00;99.90
4293;DHT22;2160;51.172;6.808;2022-11-15T16:48:43;16.90;99.90
4293;DHT22;2160;51.172;6.808;2022-11-15T16:51:10;16.80;99.90
4293;DHT22;2160;51.172;6.808;2022-11-15T16:53:37;16.90;99.90
4293;DHT22;2160;51.172;6.808;2022-11-15T16:56:16;16.90;99.90
4293;DHT22;2160;51.172;6.808;2022-11-15T16:58:44;16.90;99.90
4293;DHT22;2160;51.172;6.808;2022-11-15T17:01:16;17.00;99.90
4293;DHT22;2160;51.172;6.808;2022-11-15T17:03:44;17.20;99.90
4293;DHT22;2160;51.172;6.808;2022-11-15T17:06:12;17.30;99.90
4293;DHT22;2160;51.172;6.808;2022-11-15T17:08:39;17.20;99.90
4293;DHT22;2160;51.172;6.808;2022-11-15T17:11:06;17.10;99.90
4293;DHT22;2160;51.172;6.808;2022-11-15T17:13:33;17.00;99.90
4293;DHT22;2160;51.172;6.808;2022-11-15T17:16:05;16.90;99.90
4293;DHT22;2160;51.172;6.808;2022-11-15T17:18:33;17.10;99.90
4293;DHT22;2160;51.172;6.808;2022-11-15T17:21:03;16.90;99.90
4293;DHT22;2160;51.172;6.808;2022-11-15T17:23:32;16.80;99.90
4293;DHT22;2160;51.172;6.808;2022-11-15T17:25:59;16.90;99.90
4293;DHT22;2160;51.172;6.808;2022-11-15T17:28:28;16.80;99.90
4293;DHT22;2160;51.172;6.808;2022-11-15T17:30:55;16.90;99.90
4293;DHT22;2160;51.172;6.808;2022-11-15T17:33:22;16.70;99.90
4293;DHT22;2160;51.172;6.808;2022-11-15T17:35:56;16.50;99.90
4293;DHT22;2160;51.172;6.808;2022-11-15T17:38:23;16.60;99.90
4293;DHT22;2160;51.172;6.808;2022-11-15T17:40:59;16.70;99.90
4293;DHT22;2160;51.172;6.808;2022-11-15T17:43:28;16.80;99.90
4293;DHT22;2160;51.172;6.808;2022-11-15T17:45:55;16.80;99.90
4293;DHT22;2160;51.172;6.808;2022-11-15T17:48:22;16.80;99.90
4293;DHT22;2160;51.172;6.808;2022-11-15T17:50:55;16.90;99.90
4293;DHT22;2160;51.172;6.808;2022-11-15T17:53:23;17.00;99.90
4293;DHT22;2160;51.172;6.808;2022-11-15T17:55:50;16.90;99.90
4293;DHT22;2160;51.172;6.808;2022-11-15T17:58:17;16.70;99.90
4293;DHT22;2160;51.172;6.808;2022-11-15T18:00:45;17.00;99.90
4293;DHT22;2160;51.172;6.808;2022-11-15T18:03:12;16.80;99.90
4293;DHT22;2160;51.172;6.808;2022-11-15T18:05:39;16.80;99.90
4293;DHT22;2160;51.172;6.808;2022-11-15T18:08:10;16.90;99.90
4293;DHT22;2160;51.172;6.808;2022-11-15T18:10:39;16.90;99.90
4293;DHT22;2160;51.172;6.808;2022-11-15T18:13:06;16.80;99.90
4293;DHT22;2160;51.172;6.808;2022-11-15T18:15:34;16.90;99.90
4293;DHT22;2160;51.172;6.808;2022-11-15T18:18:01;16.90;99.90
4293;DHT22;2160;51.172;6.808;2022-11-15T18:20:27;17.00;99.90
4293;DHT22;2160;51.172;6.808;2022-11-15T18:22:54;16.80;99.90
4293;DHT22;2160;51.172;6.808;2022-11-15T18:25:23;16.90;99.90
4293;DHT22;2160;51.172;6.808;2022-11-15T18:27:50;16.90;99.90
4293;DHT22;2160;51.172;6.808;2022-11-15T18:30:20;17.00;99.90
4293;DHT22;2160;51.172;6.808;2022-11-15T18:32:47;17.00;99.90
4293;DHT22;2160;51.172;6.808;2022-11-15T18:35:15;16.70;99.90
4293;DHT22;2160;51.172;6.808;2022-11-15T18:37:42;16.70;99.90
4293;DHT22;2160;51.172;6.808;2022-11-15T18:40:09;16.60;99.90
4293;DHT22;2160;51.172;6.808;2022-11-15T18:42:37;16.50;99.90
4293;DHT22;2160;51.172;6.808;2022-11-15T18:45:05;16.30;99.90
4293;DHT22;2160;51.172;6.808;2022-11-15T18:47:32;16.40;99.90
4293;DHT22;2160;51.172;6.808;2022-11-15T18:49:59;16.50;99.90
4293;DHT22;2160;51.172;6.808;2022-11-15T18:52:26;16.40;99.90
4293;DHT22;2160;51.172;6.808;2022-11-15T18:54:53;16.20;99.90
4293;DHT22;2160;51.172;6.808;2022-11-15T18:57:20;16.40;99.90
4293;DHT22;2160;51.172;6.808;2022-11-15T18:59:48;16.40;99.90
4293;DHT22;2160;51.172;6.808;2022-11-15T19:02:15;16.40;99.90
4293;DHT22;2160;51.172;6.808;2022-11-15T19:04:42;16.20;99.90
4293;DHT22;2160;51.172;6.808;2022-11-15T19:07:09;16.30;99.90
4293;DHT22;2160;51.172;6.808;2022-11-15T19:09:36;16.00;99.90
4293;DHT22;2160;51.172;6.808;2022-11-15T19:12:03;16.10;99.90
4293;DHT22;2160;51.172;6.808;2022-11-15T19:14:30;16.10;99.90
4293;DHT22;2160;51.172;6.808;2022-11-15T19:16:58;16.00;99.90
4293;DHT22;2160;51.172;6.808;2022-11-15T19:19:26;16.00;99.90
4293;DHT22;2160;51.172;6.808;2022-11-15T19:21:54;16.10;99.90
4293;DHT22;2160;51.172;6.808;2022-11-15T19:24:21;15.80;99.90
4293;DHT22;2160;51.172;6.808;2022-11-15T19:26:48;15.80;99.90
4293;DHT22;2160;51.172;6.808;2022-11-15T19:29:15;15.80;99.90
4293;DHT22;2160;51.172;6.808;2022-11-15T19:31:42;15.80;99.90
4293;DHT22;2160;51.172;6.808;2022-11-15T19:34:11;15.90;99.90
4293;DHT22;2160;51.172;6.808;2022-11-15T19:36:40;15.80;99.90
4293;DHT22;2160;51.172;6.808;2022-11-15T19:39:09;15.80;99.90
4293;DHT22;2160;51.172;6.808;2022-11-15T19:41:38;15.70;99.90
4293;DHT22;2160;51.172;6.808;2022-11-15T19:44:07;15.60;99.90
4293;DHT22;2160;51.172;6.808;2022-11-15T19:46:34;15.70;99.90
4293;DHT22;2160;51.172;6.808;2022-11-15T19:49:02;15.80;99.90
4293;DHT22;2160;51.172;6.808;2022-11-15T19:51:30;15.80;99.90
4293;DHT22;2160;51.172;6.808;2022-11-15T19:53:59;15.90;99.90
4293;DHT22;2160;51.172;6.808;2022-11-15T19:56:31;15.70;99.90
4293;DHT22;2160;51.172;6.808;2022-11-15T19:58:58;15.70;99.90
4293;DHT22;2160;51.172;6.808;2022-11-15T20:01:26;15.60;99.90
4293;DHT22;2160;51.172;6.808;2022-11-15T20:03:55;15.50;99.90
4293;DHT22;2160;51.172;6.808;2022-11-15T20:06:24;15.40;99.90
4293;DHT22;2160;51.172;6.808;2022-11-15T20:08:52;15.60;99.90
4293;DHT22;2160;51.172;6.808;2022-11-15T20:11:19;15.60;99.90
4293;DHT22;2160;51.172;6.808;2022-11-15T20:13:47;15.60;99.90
4293;DHT22;2160;51.172;6.808;2022-11-15T20:16:15;15.50;99.90
4293;DHT22;2160;51.172;6.808;2022-11-15T20:18:43;15.60;99.90
4293;DHT22;2160;51.172;6.808;2022-11-15T20:21:10;15.60;99.90
4293;DHT22;2160;51.172;6.808;2022-11-15T20:23:37;15.60;99.90
4293;DHT22;2160;51.172;6.808;2022-11-15T20:26:06;15.50;99.90
4293;DHT22;2160;51.172;6.808;2022-11-15T20:28:35;15.50;99.90
4293;DHT22;2160;51.172;6.808;2022-11-15T20:31:03;15.60;99.90
4293;DHT22;2160;51.172;6.808;2022-11-15T20:33:30;15.60;99.90
4293;DHT22;2160;51.172;6.808;2022-11-15T20:36:01;15.70;99.90
4293;DHT22;2160;51.172;6.808;2022-11-15T20:38:28;15.40;99.90
4293;DHT22;2160;51.172;6.808;2022-11-15T20:40:55;15.30;99.90
4293;DHT22;2160;51.172;6.808;2022-11-15T20:43:23;15.50;99.90
4293;DHT22;2160;51.172;6.808;2022-11-15T20:45:50;15.40;99.90
4293;DHT22;2160;51.172;6.808;2022-11-15T20:48:17;15.50;99.90
4293;DHT22;2160;51.172;6.808;2022-11-15T20:50:45;15.60;99.90
4293;DHT22;2160;51.172;6.808;2022-11-15T20:53:14;15.50;99.90
4293;DHT22;2160;51.172;6.808;2022-11-15T20:55:42;15.60;99.90
4293;DHT22;2160;51.172;6.808;2022-11-15T20:58:12;15.60;99.90
4293;DHT22;2160;51.172;6.808;2022-11-15T21:00:41;15.50;99.90
4293;DHT22;2160;51.172;6.808;2022-11-15T21:03:09;15.50;99.90
4293;DHT22;2160;51.172;6.808;2022-11-15T21:05:37;15.50;99.90
4293;DHT22;2160;51.172;6.808;2022-11-15T21:08:04;15.50;99.90
4293;DHT22;2160;51.172;6.808;2022-11-15T21:10:32;15.50;99.90
4293;DHT22;2160;51.172;6.808;2022-11-15T21:13:16;15.50;99.90
4293;DHT22;2160;51.172;6.808;2022-11-15T21:15:45;15.20;99.90
4293;DHT22;2160;51.172;6.808;2022-11-15T21:18:12;15.20;99.90
4293;DHT22;2160;51.172;6.808;2022-11-15T21:20:39;15.10;99.90
4293;DHT22;2160;51.172;6.808;2022-11-15T21:23:06;15.20;99.90
4293;DHT22;2160;51.172;6.808;2022-11-15T21:25:33;15.20;99.90
4293;DHT22;2160;51.172;6.808;2022-11-15T21:28:00;15.30;99.90
4293;DHT22;2160;51.172;6.808;2022-11-15T21:30:27;15.20;99.90
4293;DHT22;2160;51.172;6.808;2022-11-15T21:32:55;15.10;99.90
4293;DHT22;2160;51.172;6.808;2022-11-15T21:35:22;15.30;99.90
4293;DHT22;2160;51.172;6.808;2022-11-15T21:37:49;15.30;99.90
4293;DHT22;2160;51.172;6.808;2022-11-15T21:40:16;15.40;99.90
4293;DHT22;2160;51.172;6.808;2022-11-15T21:42:43;15.40;99.90
4293;DHT22;2160;51.172;6.808;2022-11-15T21:45:10;15.50;99.90
4293;DHT22;2160;51.172;6.808;2022-11-15T21:47:37;15.60;99.90
4293;DHT22;2160;51.172;6.808;2022-11-15T21:50:06;15.30;99.90
4293;DHT22;2160;51.172;6.808;2022-11-15T21:52:33;15.30;99.90
4293;DHT22;2160;51.172;6.808;2022-11-15T21:55:00;15.40;99.90
4293;DHT22;2160;51.172;6.808;2022-11-15T21:57:27;15.40;99.90
4293;DHT22;2160;51.172;6.808;2022-11-15T21:59:54;15.40;99.90
4293;DHT22;2160;51.172;6.808;2022-11-15T22:02:39;15.30;99.90
4293;DHT22;2160;51.172;6.808;2022-11-15T22:05:08;15.30;99.90
4293;DHT22;2160;51.172;6.808;2022-11-15T22:07:34;15.30;99.90
4293;DHT22;2160;51.172;6.808;2022-11-15T22:10:02;15.40;99.90
4293;DHT22;2160;51.172;6.808;2022-11-15T22:12:29;15.40;99.90